CK5 weather

CLOSED Pinchgut Lake Water Aerodrome
Pinchgut Lake, Newfoundland and Labrador, Canada

Public forecast

Using degrees Celsius for public forecast. Weather courtesy of forecast.io.

Closest aviation weather report (METAR) to Pinchgut Lake Water Aerodrome

Closest report is Stephenville Airport, 27.6 nm (51.1 km) SW. Retrieved 2020/08/06 00:00 UTC (34 minutes ago):

CYJT 060000Z 17011KT 15SM BKN028 19/15 A3000 RMK SC7 SLP160 DENSITY ALT 500FT

Closest aviation forecast (TAF) to Pinchgut Lake Water Aerodrome

Closest forecast is Stephenville Airport, 27.6 nm (51.1 km) SW. Retrieved 2020-08-06 00:42 UTC (0 seconds ago):

TAF TAF CYJT 052338Z 0600/0624 17012KT P6SM SCT020 BKN040 TEMPO 0600/0606 P6SM -SHRA BKN020 OVC040 FM060600 18010KT P6SM SCT008 BKN020 TEMPO 0606/0612 BKN008 OVC020 FM061200 23015G25KT P6SM SCT005 BKN015 FM061800 24012G22KT P6SM SCT015 BECMG 0622/0624 24010KT RMK NXT FCST BY 060600Z